sensor_id;sensor_type;location;lat;lon;timestamp;temperature;humidity
16102;DHT22;56411;52.964;10.540;2023-03-04T00:00:29;4.40;99.90
16102;DHT22;56411;52.964;10.540;2023-03-04T00:02:56;4.40;99.90
16102;DHT22;56411;52.964;10.540;2023-03-04T00:05:24;4.50;99.90
16102;DHT22;56411;52.964;10.540;2023-03-04T00:07:55;4.50;99.90
16102;DHT22;56411;52.964;10.540;2023-03-04T00:10:24;4.50;99.90
16102;DHT22;56411;52.964;10.540;2023-03-04T00:12:53;4.50;99.90
16102;DHT22;56411;52.964;10.540;2023-03-04T00:15:20;4.50;99.90
16102;DHT22;56411;52.964;10.540;2023-03-04T00:17:47;4.50;99.90
16102;DHT22;56411;52.964;10.540;2023-03-04T00:20:17;4.50;99.90
16102;DHT22;56411;52.964;10.540;2023-03-04T00:22:44;4.50;99.90
16102;DHT22;56411;52.964;10.540;2023-03-04T00:25:13;4.50;99.90
16102;DHT22;56411;52.964;10.540;2023-03-04T00:27:40;4.50;99.90
16102;DHT22;56411;52.964;10.540;2023-03-04T00:30:09;4.60;99.90
16102;DHT22;56411;52.964;10.540;2023-03-04T00:32:36;4.60;99.90
16102;DHT22;56411;52.964;10.540;2023-03-04T00:35:04;4.60;99.90
16102;DHT22;56411;52.964;10.540;2023-03-04T00:37:32;4.60;99.90
16102;DHT22;56411;52.964;10.540;2023-03-04T00:39:59;4.60;99.90
16102;DHT22;56411;52.964;10.540;2023-03-04T00:42:28;4.60;99.90
16102;DHT22;56411;52.964;10.540;2023-03-04T00:44:55;4.60;99.90
16102;DHT22;56411;52.964;10.540;2023-03-04T00:47:22;4.60;99.90
16102;DHT22;56411;52.964;10.540;2023-03-04T00:49:50;4.60;99.90
16102;DHT22;56411;52.964;10.540;2023-03-04T00:52:17;4.60;99.90
16102;DHT22;56411;52.964;10.540;2023-03-04T00:54:44;4.60;99.90
16102;DHT22;56411;52.964;10.540;2023-03-04T00:57:11;4.60;99.90
16102;DHT22;56411;52.964;10.540;2023-03-04T00:59:40;4.60;99.90
16102;DHT22;56411;52.964;10.540;2023-03-04T01:02:08;4.60;99.90
16102;DHT22;56411;52.964;10.540;2023-03-04T01:04:35;4.60;99.90
16102;DHT22;56411;52.964;10.540;2023-03-04T01:07:03;4.60;99.90
16102;DHT22;56411;52.964;10.540;2023-03-04T01:09:30;4.60;99.90
16102;DHT22;56411;52.964;10.540;2023-03-04T01:11:57;4.60;99.90
16102;DHT22;56411;52.964;10.540;2023-03-04T01:14:24;4.60;99.90
16102;DHT22;56411;52.964;10.540;2023-03-04T01:16:53;4.70;99.90
16102;DHT22;56411;52.964;10.540;2023-03-04T01:19:21;4.70;99.90
16102;DHT22;56411;52.964;10.540;2023-03-04T01:21:48;4.70;99.90
16102;DHT22;56411;52.964;10.540;2023-03-04T01:24:18;4.70;99.90
16102;DHT22;56411;52.964;10.540;2023-03-04T01:26:45;4.70;99.90
16102;DHT22;56411;52.964;10.540;2023-03-04T01:29:13;4.60;99.90
16102;DHT22;56411;52.964;10.540;2023-03-04T01:31:40;4.60;99.90
16102;DHT22;56411;52.964;10.540;2023-03-04T01:34:08;4.60;99.90
16102;DHT22;56411;52.964;10.540;2023-03-04T01:36:36;4.60;99.90
16102;DHT22;56411;52.964;10.540;2023-03-04T01:39:03;4.70;99.90
16102;DHT22;56411;52.964;10.540;2023-03-04T01:41:30;4.70;99.90
16102;DHT22;56411;52.964;10.540;2023-03-04T01:43:59;4.70;99.90
16102;DHT22;56411;52.964;10.540;2023-03-04T01:46:27;4.80;99.90
16102;DHT22;56411;52.964;10.540;2023-03-04T01:48:55;4.80;99.90
16102;DHT22;56411;52.964;10.540;2023-03-04T01:51:24;4.70;99.90
16102;DHT22;56411;52.964;10.540;2023-03-04T01:53:51;4.70;99.90
16102;DHT22;56411;52.964;10.540;2023-03-04T01:56:22;4.70;99.90
16102;DHT22;56411;52.964;10.540;2023-03-04T01:59:07;4.80;99.90
16102;DHT22;56411;52.964;10.540;2023-03-04T02:01:36;4.80;99.90
16102;DHT22;56411;52.964;10.540;2023-03-04T02:04:03;4.70;99.90
16102;DHT22;56411;52.964;10.540;2023-03-04T02:06:33;4.70;99.90
16102;DHT22;56411;52.964;10.540;2023-03-04T02:09:01;4.70;99.90
16102;DHT22;56411;52.964;10.540;2023-03-04T02:11:31;4.70;99.90
16102;DHT22;56411;52.964;10.540;2023-03-04T02:14:01;4.80;99.90
16102;DHT22;56411;52.964;10.540;2023-03-04T02:16:32;4.80;99.90
16102;DHT22;56411;52.964;10.540;2023-03-04T02:18:59;4.80;99.90
16102;DHT22;56411;52.964;10.540;2023-03-04T02:21:28;4.80;99.90
16102;DHT22;56411;52.964;10.540;2023-03-04T02:24:13;4.80;99.90
16102;DHT22;56411;52.964;10.540;2023-03-04T02:26:44;4.80;99.90
16102;DHT22;56411;52.964;10.540;2023-03-04T02:29:13;4.80;99.90
16102;DHT22;56411;52.964;10.540;2023-03-04T02:31:44;4.80;99.90
16102;DHT22;56411;52.964;10.540;2023-03-04T02:34:13;4.80;99.90
16102;DHT22;56411;52.964;10.540;2023-03-04T02:36:41;4.70;99.90
16102;DHT22;56411;52.964;10.540;2023-03-04T02:39:11;4.70;99.90
16102;DHT22;56411;52.964;10.540;2023-03-04T02:41:39;4.70;99.90
16102;DHT22;56411;52.964;10.540;2023-03-04T02:44:15;4.80;99.90
16102;DHT22;56411;52.964;10.540;2023-03-04T02:46:42;4.80;99.90
16102;DHT22;56411;52.964;10.540;2023-03-04T02:49:10;4.80;99.90
16102;DHT22;56411;52.964;10.540;2023-03-04T02:51:37;4.70;99.90
16102;DHT22;56411;52.964;10.540;2023-03-04T02:54:11;4.70;99.90
16102;DHT22;56411;52.964;10.540;2023-03-04T02:56:44;4.70;99.90
16102;DHT22;56411;52.964;10.540;2023-03-04T02:59:13;4.70;99.90
16102;DHT22;56411;52.964;10.540;2023-03-04T03:01:40;4.70;99.90
16102;DHT22;56411;52.964;10.540;2023-03-04T03:04:07;4.70;99.90
16102;DHT22;56411;52.964;10.540;2023-03-04T03:06:34;4.80;99.90
16102;DHT22;56411;52.964;10.540;2023-03-04T03:09:02;4.70;99.90
16102;DHT22;56411;52.964;10.540;2023-03-04T03:11:29;4.70;99.90
16102;DHT22;56411;52.964;10.540;2023-03-04T03:13:57;4.70;99.90
16102;DHT22;56411;52.964;10.540;2023-03-04T03:16:25;4.70;99.90
16102;DHT22;56411;52.964;10.540;2023-03-04T03:18:52;4.70;99.90
16102;DHT22;56411;52.964;10.540;2023-03-04T03:21:20;4.70;99.90
16102;DHT22;56411;52.964;10.540;2023-03-04T03:23:47;4.70;99.90
16102;DHT22;56411;52.964;10.540;2023-03-04T03:26:17;4.70;99.90
16102;DHT22;56411;52.964;10.540;2023-03-04T03:28:45;4.70;99.90
16102;DHT22;56411;52.964;10.540;2023-03-04T03:31:13;4.80;99.90
16102;DHT22;56411;52.964;10.540;2023-03-04T03:33:41;4.80;99.90
16102;DHT22;56411;52.964;10.540;2023-03-04T03:36:09;4.80;99.90
16102;DHT22;56411;52.964;10.540;2023-03-04T03:38:37;4.80;99.90
16102;DHT22;56411;52.964;10.540;2023-03-04T03:41:04;4.70;99.90
16102;DHT22;56411;52.964;10.540;2023-03-04T03:43:31;4.80;99.90
16102;DHT22;56411;52.964;10.540;2023-03-04T03:45:58;4.70;99.90
16102;DHT22;56411;52.964;10.540;2023-03-04T03:48:26;4.70;99.90
16102;DHT22;56411;52.964;10.540;2023-03-04T03:50:54;4.70;99.90
16102;DHT22;56411;52.964;10.540;2023-03-04T03:53:22;4.70;99.90
16102;DHT22;56411;52.964;10.540;2023-03-04T03:55:49;4.70;99.90
16102;DHT22;56411;52.964;10.540;2023-03-04T03:58:16;4.70;99.90
16102;DHT22;56411;52.964;10.540;2023-03-04T04:00:43;4.70;99.90
16102;DHT22;56411;52.964;10.540;2023-03-04T04:03:13;4.80;99.90
16102;DHT22;56411;52.964;10.540;2023-03-04T04:05:41;4.80;99.90
16102;DHT22;56411;52.964;10.540;2023-03-04T04:08:12;4.80;99.90
16102;DHT22;56411;52.964;10.540;2023-03-04T04:10:39;4.80;99.90
16102;DHT22;56411;52.964;10.540;2023-03-04T04:13:06;4.80;99.90
16102;DHT22;56411;52.964;10.540;2023-03-04T04:15:33;4.80;99.90
16102;DHT22;56411;52.964;10.540;2023-03-04T04:18:01;4.80;99.90
16102;DHT22;56411;52.964;10.540;2023-03-04T04:20:28;4.80;99.90
16102;DHT22;56411;52.964;10.540;2023-03-04T04:22:55;4.70;99.90
16102;DHT22;56411;52.964;10.540;2023-03-04T04:25:24;4.70;99.90
16102;DHT22;56411;52.964;10.540;2023-03-04T04:27:51;4.70;99.90
16102;DHT22;56411;52.964;10.540;2023-03-04T04:30:20;4.70;99.90
16102;DHT22;56411;52.964;10.540;2023-03-04T04:32:47;4.70;99.90
16102;DHT22;56411;52.964;10.540;2023-03-04T04:35:14;4.70;99.90
16102;DHT22;56411;52.964;10.540;2023-03-04T04:37:41;4.60;99.90
16102;DHT22;56411;52.964;10.540;2023-03-04T04:40:10;4.60;99.90
16102;DHT22;56411;52.964;10.540;2023-03-04T04:42:39;4.60;99.90
16102;DHT22;56411;52.964;10.540;2023-03-04T04:45:07;4.60;99.90
16102;DHT22;56411;52.964;10.540;2023-03-04T04:47:35;4.60;99.90
16102;DHT22;56411;52.964;10.540;2023-03-04T04:50:02;4.50;99.90
16102;DHT22;56411;52.964;10.540;2023-03-04T04:52:29;4.50;99.90
16102;DHT22;56411;52.964;10.540;2023-03-04T04:54:56;4.50;99.90
16102;DHT22;56411;52.964;10.540;2023-03-04T04:57:23;4.50;99.90
16102;DHT22;56411;52.964;10.540;2023-03-04T04:59:52;4.40;99.90
16102;DHT22;56411;52.964;10.540;2023-03-04T05:02:20;4.40;99.90
16102;DHT22;56411;52.964;10.540;2023-03-04T05:04:47;4.40;99.90
16102;DHT22;56411;52.964;10.540;2023-03-04T05:07:14;4.40;99.90
16102;DHT22;56411;52.964;10.540;2023-03-04T05:09:41;4.40;99.90
16102;DHT22;56411;52.964;10.540;2023-03-04T05:12:08;4.40;99.90
16102;DHT22;56411;52.964;10.540;2023-03-04T05:14:35;4.40;99.90
16102;DHT22;56411;52.964;10.540;2023-03-04T05:17:04;4.40;99.90
16102;DHT22;56411;52.964;10.540;2023-03-04T05:19:31;4.40;99.90
16102;DHT22;56411;52.964;10.540;2023-03-04T05:21:58;4.50;99.90
16102;DHT22;56411;52.964;10.540;2023-03-04T05:24:25;4.40;99.90
16102;DHT22;56411;52.964;10.540;2023-03-04T05:26:52;4.40;99.90
16102;DHT22;56411;52.964;10.540;2023-03-04T05:29:20;4.40;99.90
16102;DHT22;56411;52.964;10.540;2023-03-04T05:31:47;4.40;99.90
16102;DHT22;56411;52.964;10.540;2023-03-04T05:34:16;4.30;99.90
16102;DHT22;56411;52.964;10.540;2023-03-04T05:36:43;4.30;99.90
16102;DHT22;56411;52.964;10.540;2023-03-04T05:39:10;4.30;99.90
16102;DHT22;56411;52.964;10.540;2023-03-04T05:41:37;4.20;99.90
16102;DHT22;56411;52.964;10.540;2023-03-04T05:44:04;4.20;99.90
16102;DHT22;56411;52.964;10.540;2023-03-04T05:46:32;4.20;99.90
16102;DHT22;56411;52.964;10.540;2023-03-04T05:48:59;4.20;99.90
16102;DHT22;56411;52.964;10.540;2023-03-04T05:51:28;4.20;99.90
16102;DHT22;56411;52.964;10.540;2023-03-04T05:53:55;4.20;99.90
16102;DHT22;56411;52.964;10.540;2023-03-04T05:56:24;4.20;99.90
16102;DHT22;56411;52.964;10.540;2023-03-04T05:58:51;4.20;99.90
16102;DHT22;56411;52.964;10.540;2023-03-04T06:01:18;4.20;99.90
16102;DHT22;56411;52.964;10.540;2023-03-04T06:03:45;4.20;99.90
16102;DHT22;56411;52.964;10.540;2023-03-04T06:06:13;4.20;99.90
16102;DHT22;56411;52.964;10.540;2023-03-04T06:08:42;4.20;99.90
16102;DHT22;56411;52.964;10.540;2023-03-04T06:11:09;4.20;99.90
16102;DHT22;56411;52.964;10.540;2023-03-04T06:13:36;4.20;99.90
16102;DHT22;56411;52.964;10.540;2023-03-04T06:16:05;4.20;99.90
16102;DHT22;56411;52.964;10.540;2023-03-04T06:18:32;4.20;99.90
16102;DHT22;56411;52.964;10.540;2023-03-04T06:21:00;4.20;99.90
16102;DHT22;56411;52.964;10.540;2023-03-04T06:23:29;4.20;99.90
16102;DHT22;56411;52.964;10.540;2023-03-04T06:25:59;4.30;99.90
16102;DHT22;56411;52.964;10.540;2023-03-04T06:28:27;4.30;99.90
16102;DHT22;56411;52.964;10.540;2023-03-04T06:30:55;4.30;99.90
16102;DHT22;56411;52.964;10.540;2023-03-04T06:33:23;4.30;99.90
16102;DHT22;56411;52.964;10.540;2023-03-04T06:35:53;4.30;99.90
16102;DHT22;56411;52.964;10.540;2023-03-04T06:38:21;4.30;99.90
16102;DHT22;56411;52.964;10.540;2023-03-04T06:40:48;4.30;99.90
16102;DHT22;56411;52.964;10.540;2023-03-04T06:43:17;4.30;99.90
16102;DHT22;56411;52.964;10.540;2023-03-04T06:45:45;4.30;99.90
16102;DHT22;56411;52.964;10.540;2023-03-04T06:48:12;4.30;99.90
16102;DHT22;56411;52.964;10.540;2023-03-04T06:50:39;4.30;99.90
16102;DHT22;56411;52.964;10.540;2023-03-04T06:53:06;4.30;99.90
16102;DHT22;56411;52.964;10.540;2023-03-04T06:55:33;4.40;99.90
16102;DHT22;56411;52.964;10.540;2023-03-04T06:58:00;4.40;99.90
16102;DHT22;56411;52.964;10.540;2023-03-04T07:00:29;4.40;99.90
16102;DHT22;56411;52.964;10.540;2023-03-04T07:02:57;4.30;99.90
16102;DHT22;56411;52.964;10.540;2023-03-04T07:05:24;4.30;99.90
16102;DHT22;56411;52.964;10.540;2023-03-04T07:07:52;4.30;99.90
16102;DHT22;56411;52.964;10.540;2023-03-04T07:10:19;4.30;99.90
16102;DHT22;56411;52.964;10.540;2023-03-04T07:12:46;4.30;99.90
16102;DHT22;56411;52.964;10.540;2023-03-04T07:15:13;4.30;99.90
16102;DHT22;56411;52.964;10.540;2023-03-04T07:17:43;4.30;99.90
16102;DHT22;56411;52.964;10.540;2023-03-04T07:20:10;4.30;99.90
16102;DHT22;56411;52.964;10.540;2023-03-04T07:22:38;4.30;99.90
16102;DHT22;56411;52.964;10.540;2023-03-04T07:25:06;4.30;99.90
16102;DHT22;56411;52.964;10.540;2023-03-04T07:27:33;4.30;99.90
16102;DHT22;56411;52.964;10.540;2023-03-04T07:30:00;4.30;99.90
16102;DHT22;56411;52.964;10.540;2023-03-04T07:32:27;4.30;99.90
16102;DHT22;56411;52.964;10.540;2023-03-04T07:34:56;4.30;99.90
16102;DHT22;56411;52.964;10.540;2023-03-04T07:37:23;4.40;99.90
16102;DHT22;56411;52.964;10.540;2023-03-04T07:39:50;4.40;99.90
16102;DHT22;56411;52.964;10.540;2023-03-04T07:42:17;4.40;99.90
16102;DHT22;56411;52.964;10.540;2023-03-04T07:44:44;4.50;99.90
16102;DHT22;56411;52.964;10.540;2023-03-04T07:47:11;4.50;99.90
16102;DHT22;56411;52.964;10.540;2023-03-04T07:49:38;4.50;99.90
16102;DHT22;56411;52.964;10.540;2023-03-04T07:52:07;4.60;99.90
16102;DHT22;56411;52.964;10.540;2023-03-04T07:54:34;4.60;99.90
16102;DHT22;56411;52.964;10.540;2023-03-04T07:57:01;4.60;99.90
16102;DHT22;56411;52.964;10.540;2023-03-04T07:59:28;4.60;99.90
16102;DHT22;56411;52.964;10.540;2023-03-04T08:01:55;4.70;99.90
16102;DHT22;56411;52.964;10.540;2023-03-04T08:04:22;4.70;99.90
16102;DHT22;56411;52.964;10.540;2023-03-04T08:06:49;4.70;99.90
16102;DHT22;56411;52.964;10.540;2023-03-04T08:09:18;4.70;99.90
16102;DHT22;56411;52.964;10.540;2023-03-04T08:11:45;4.70;99.90
16102;DHT22;56411;52.964;10.540;2023-03-04T08:14:12;4.70;99.90
16102;DHT22;56411;52.964;10.540;2023-03-04T08:16:40;4.70;99.90
16102;DHT22;56411;52.964;10.540;2023-03-04T08:19:08;4.70;99.90
16102;DHT22;56411;52.964;10.540;2023-03-04T08:21:35;4.70;99.90
16102;DHT22;56411;52.964;10.540;2023-03-04T08:24:02;4.70;99.90
16102;DHT22;56411;52.964;10.540;2023-03-04T08:26:36;4.70;99.90
16102;DHT22;56411;52.964;10.540;2023-03-04T08:29:06;4.80;99.90
16102;DHT22;56411;52.964;10.540;2023-03-04T08:31:33;4.80;99.90
16102;DHT22;56411;52.964;10.540;2023-03-04T08:34:01;4.80;99.90
16102;DHT22;56411;52.964;10.540;2023-03-04T08:36:29;4.90;99.90
16102;DHT22;56411;52.964;10.540;2023-03-04T08:38:56;4.90;99.90
16102;DHT22;56411;52.964;10.540;2023-03-04T08:41:23;4.90;99.90
16102;DHT22;56411;52.964;10.540;2023-03-04T08:43:53;5.00;99.90
16102;DHT22;56411;52.964;10.540;2023-03-04T08:46:20;4.90;99.90
16102;DHT22;56411;52.964;10.540;2023-03-04T08:48:47;5.00;99.90
16102;DHT22;56411;52.964;10.540;2023-03-04T08:51:17;5.00;99.90
16102;DHT22;56411;52.964;10.540;2023-03-04T08:53:44;5.10;99.90
16102;DHT22;56411;52.964;10.540;2023-03-04T08:56:12;5.10;99.90
16102;DHT22;56411;52.964;10.540;2023-03-04T08:58:39;5.10;99.90
16102;DHT22;56411;52.964;10.540;2023-03-04T09:01:10;5.20;99.90
16102;DHT22;56411;52.964;10.540;2023-03-04T09:03:37;5.20;99.90
16102;DHT22;56411;52.964;10.540;2023-03-04T09:06:05;5.10;99.90
16102;DHT22;56411;52.964;10.540;2023-03-04T09:08:33;5.10;99.90
16102;DHT22;56411;52.964;10.540;2023-03-04T09:11:00;5.10;99.90
16102;DHT22;56411;52.964;10.540;2023-03-04T09:13:28;5.10;99.90
16102;DHT22;56411;52.964;10.540;2023-03-04T09:15:56;5.10;99.90
16102;DHT22;56411;52.964;10.540;2023-03-04T09:18:28;5.00;99.90
16102;DHT22;56411;52.964;10.540;2023-03-04T09:20:58;5.00;99.90
16102;DHT22;56411;52.964;10.540;2023-03-04T09:23:26;4.90;99.90
16102;DHT22;56411;52.964;10.540;2023-03-04T09:25:53;4.80;99.90
16102;DHT22;56411;52.964;10.540;2023-03-04T09:28:20;4.70;99.90
16102;DHT22;56411;52.964;10.540;2023-03-04T09:30:48;4.70;99.90
16102;DHT22;56411;52.964;10.540;2023-03-04T09:33:16;4.70;99.90
16102;DHT22;56411;52.964;10.540;2023-03-04T09:35:45;4.70;99.90
16102;DHT22;56411;52.964;10.540;2023-03-04T09:38:13;4.70;99.90
16102;DHT22;56411;52.964;10.540;2023-03-04T09:40:43;4.80;99.90
16102;DHT22;56411;52.964;10.540;2023-03-04T09:43:17;4.80;99.90
16102;DHT22;56411;52.964;10.540;2023-03-04T09:45:51;4.90;99.90
16102;DHT22;56411;52.964;10.540;2023-03-04T09:48:27;4.90;99.90
16102;DHT22;56411;52.964;10.540;2023-03-04T09:54:05;5.00;99.90
16102;DHT22;56411;52.964;10.540;2023-03-04T09:56:35;5.00;99.90
16102;DHT22;56411;52.964;10.540;2023-03-04T09:59:11;5.00;99.90
16102;DHT22;56411;52.964;10.540;2023-03-04T10:01:45;5.10;99.90
16102;DHT22;56411;52.964;10.540;2023-03-04T10:04:15;5.10;99.90
16102;DHT22;56411;52.964;10.540;2023-03-04T10:06:46;5.00;99.90
16102;DHT22;56411;52.964;10.540;2023-03-04T10:09:23;5.00;99.90
16102;DHT22;56411;52.964;10.540;2023-03-04T10:12:00;4.90;99.90
16102;DHT22;56411;52.964;10.540;2023-03-04T10:14:33;4.90;99.90
16102;DHT22;56411;52.964;10.540;2023-03-04T10:17:06;5.00;99.90
16102;DHT22;56411;52.964;10.540;2023-03-04T10:19:50;5.10;99.90
16102;DHT22;56411;52.964;10.540;2023-03-04T10:22:25;5.00;99.90
16102;DHT22;56411;52.964;10.540;2023-03-04T10:24:56;5.00;99.90
16102;DHT22;56411;52.964;10.540;2023-03-04T10:27:24;5.10;99.90
16102;DHT22;56411;52.964;10.540;2023-03-04T10:29:56;5.10;99.90
16102;DHT22;56411;52.964;10.540;2023-03-04T10:32:24;5.00;99.90
16102;DHT22;56411;52.964;10.540;2023-03-04T10:34:51;5.00;99.90
16102;DHT22;56411;52.964;10.540;2023-03-04T10:37:20;5.10;99.90
16102;DHT22;56411;52.964;10.540;2023-03-04T10:39:49;5.20;99.90
16102;DHT22;56411;52.964;10.540;2023-03-04T10:42:26;5.10;99.90
16102;DHT22;56411;52.964;10.540;2023-03-04T10:45:01;5.10;99.90
16102;DHT22;56411;52.964;10.540;2023-03-04T10:47:30;5.20;99.90
16102;DHT22;56411;52.964;10.540;2023-03-04T10:50:00;5.20;99.90
16102;DHT22;56411;52.964;10.540;2023-03-04T10:52:35;5.20;99.90
16102;DHT22;56411;52.964;10.540;2023-03-04T10:55:05;5.20;99.90
16102;DHT22;56411;52.964;10.540;2023-03-04T10:58:02;5.20;99.90
16102;DHT22;56411;52.964;10.540;2023-03-04T11:00:33;5.20;99.90
16102;DHT22;56411;52.964;10.540;2023-03-04T11:03:30;5.30;99.90
16102;DHT22;56411;52.964;10.540;2023-03-04T11:06:13;5.10;99.90
16102;DHT22;56411;52.964;10.540;2023-03-04T11:08:42;5.00;99.90
16102;DHT22;56411;52.964;10.540;2023-03-04T11:11:32;4.90;99.90
16102;DHT22;56411;52.964;10.540;2023-03-04T11:14:33;4.90;99.90
16102;DHT22;56411;52.964;10.540;2023-03-04T11:17:25;5.00;99.90
16102;DHT22;56411;52.964;10.540;2023-03-04T11:20:04;5.00;99.90
16102;DHT22;56411;52.964;10.540;2023-03-04T11:22:36;5.00;99.90
16102;DHT22;56411;52.964;10.540;2023-03-04T11:25:16;5.10;99.90
16102;DHT22;56411;52.964;10.540;2023-03-04T11:27:48;5.00;99.90
16102;DHT22;56411;52.964;10.540;2023-03-04T11:30:35;5.10;99.90
16102;DHT22;56411;52.964;10.540;2023-03-04T11:33:21;5.20;99.90
16102;DHT22;56411;52.964;10.540;2023-03-04T11:36:03;5.10;99.90
16102;DHT22;56411;52.964;10.540;2023-03-04T11:38:35;5.00;99.90
16102;DHT22;56411;52.964;10.540;2023-03-04T11:41:08;5.10;99.90
16102;DHT22;56411;52.964;10.540;2023-03-04T11:43:37;5.20;99.90
16102;DHT22;56411;52.964;10.540;2023-03-04T11:46:31;5.20;99.90
16102;DHT22;56411;52.964;10.540;2023-03-04T11:52:02;5.20;99.90
16102;DHT22;56411;52.964;10.540;2023-03-04T11:54:40;5.30;99.90
16102;DHT22;56411;52.964;10.540;2023-03-04T11:57:15;5.30;99.90
16102;DHT22;56411;52.964;10.540;2023-03-04T11:59:58;5.20;99.90
16102;DHT22;56411;52.964;10.540;2023-03-04T12:02:37;5.20;99.90
16102;DHT22;56411;52.964;10.540;2023-03-04T12:05:19;5.20;99.90
16102;DHT22;56411;52.964;10.540;2023-03-04T12:07:59;5.20;99.90
16102;DHT22;56411;52.964;10.540;2023-03-04T12:10:34;5.30;99.90
16102;DHT22;56411;52.964;10.540;2023-03-04T12:17:03;5.40;99.90
16102;DHT22;56411;52.964;10.540;2023-03-04T12:19:44;5.50;99.90
16102;DHT22;56411;52.964;10.540;2023-03-04T12:22:32;5.60;99.90
16102;DHT22;56411;52.964;10.540;2023-03-04T12:25:18;5.60;99.90
16102;DHT22;56411;52.964;10.540;2023-03-04T12:27:57;5.70;99.90
16102;DHT22;56411;52.964;10.540;2023-03-04T12:30:39;5.70;99.90
16102;DHT22;56411;52.964;10.540;2023-03-04T12:33:15;5.70;99.90
16102;DHT22;56411;52.964;10.540;2023-03-04T12:35:55;5.70;99.90
16102;DHT22;56411;52.964;10.540;2023-03-04T12:38:34;5.60;99.90
16102;DHT22;56411;52.964;10.540;2023-03-04T12:41:18;5.50;99.90
16102;DHT22;56411;52.964;10.540;2023-03-04T12:43:55;5.60;99.90
16102;DHT22;56411;52.964;10.540;2023-03-04T12:46:35;5.60;99.90
16102;DHT22;56411;52.964;10.540;2023-03-04T12:52:15;5.50;99.90
16102;DHT22;56411;52.964;10.540;2023-03-04T12:54:49;5.50;99.90
16102;DHT22;56411;52.964;10.540;2023-03-04T12:57:22;5.50;99.90
16102;DHT22;56411;52.964;10.540;2023-03-04T12:59:56;5.50;99.90
16102;DHT22;56411;52.964;10.540;2023-03-04T13:02:50;5.50;99.90
16102;DHT22;56411;52.964;10.540;2023-03-04T13:05:36;5.50;99.90
16102;DHT22;56411;52.964;10.540;2023-03-04T13:08:18;5.50;99.90
16102;DHT22;56411;52.964;10.540;2023-03-04T13:10:49;5.60;99.90
16102;DHT22;56411;52.964;10.540;2023-03-04T13:13:38;5.60;99.90
16102;DHT22;56411;52.964;10.540;2023-03-04T13:18:57;5.60;99.90
16102;DHT22;56411;52.964;10.540;2023-03-04T13:21:43;5.60;99.90
16102;DHT22;56411;52.964;10.540;2023-03-04T13:27:47;5.70;99.90
16102;DHT22;56411;52.964;10.540;2023-03-04T13:30:39;5.80;99.90
16102;DHT22;56411;52.964;10.540;2023-03-04T13:33:44;5.70;99.90
16102;DHT22;56411;52.964;10.540;2023-03-04T13:36:33;5.70;99.90
16102;DHT22;56411;52.964;10.540;2023-03-04T13:39:03;5.70;99.90
16102;DHT22;56411;52.964;10.540;2023-03-04T13:41:48;5.70;99.90
16102;DHT22;56411;52.964;10.540;2023-03-04T13:44:33;5.80;99.90
16102;DHT22;56411;52.964;10.540;2023-03-04T13:47:08;5.90;99.90
16102;DHT22;56411;52.964;10.540;2023-03-04T13:49:35;5.70;99.90
16102;DHT22;56411;52.964;10.540;2023-03-04T13:52:36;5.80;99.90
16102;DHT22;56411;52.964;10.540;2023-03-04T13:55:33;5.70;99.90
16102;DHT22;56411;52.964;10.540;2023-03-04T13:58:13;5.70;99.90
16102;DHT22;56411;52.964;10.540;2023-03-04T14:01:01;5.80;99.90
16102;DHT22;56411;52.964;10.540;2023-03-04T14:03:34;5.60;99.90
16102;DHT22;56411;52.964;10.540;2023-03-04T14:06:25;5.60;99.90
16102;DHT22;56411;52.964;10.540;2023-03-04T14:08:54;5.60;99.90
16102;DHT22;56411;52.964;10.540;2023-03-04T14:11:27;5.60;99.90
16102;DHT22;56411;52.964;10.540;2023-03-04T14:13:57;5.60;99.90
16102;DHT22;56411;52.964;10.540;2023-03-04T14:16:28;5.60;99.90
16102;DHT22;56411;52.964;10.540;2023-03-04T14:19:00;5.40;99.90
16102;DHT22;56411;52.964;10.540;2023-03-04T14:21:29;5.20;99.90
16102;DHT22;56411;52.964;10.540;2023-03-04T14:24:05;5.30;99.90
16102;DHT22;56411;52.964;10.540;2023-03-04T14:26:33;5.30;99.90
16102;DHT22;56411;52.964;10.540;2023-03-04T14:29:01;5.30;99.90
16102;DHT22;56411;52.964;10.540;2023-03-04T14:31:33;5.50;99.90
16102;DHT22;56411;52.964;10.540;2023-03-04T14:34:01;5.50;99.90
16102;DHT22;56411;52.964;10.540;2023-03-04T14:36:31;5.40;99.90
16102;DHT22;56411;52.964;10.540;2023-03-04T14:39:00;5.40;99.90
16102;DHT22;56411;52.964;10.540;2023-03-04T14:41:31;5.30;99.90
16102;DHT22;56411;52.964;10.540;2023-03-04T14:44:04;5.40;99.90
16102;DHT22;56411;52.964;10.540;2023-03-04T14:46:37;5.40;99.90
16102;DHT22;56411;52.964;10.540;2023-03-04T14:49:08;5.30;99.90
16102;DHT22;56411;52.964;10.540;2023-03-04T14:51:44;5.30;99.90
16102;DHT22;56411;52.964;10.540;2023-03-04T14:54:33;5.20;99.90
16102;DHT22;56411;52.964;10.540;2023-03-04T14:57:19;5.30;99.90
16102;DHT22;56411;52.964;10.540;2023-03-04T14:59:48;5.20;99.90
16102;DHT22;56411;52.964;10.540;2023-03-04T15:02:28;5.20;99.90
16102;DHT22;56411;52.964;10.540;2023-03-04T15:05:00;5.10;99.90
16102;DHT22;56411;52.964;10.540;2023-03-04T15:07:30;5.10;99.90
16102;DHT22;56411;52.964;10.540;2023-03-04T15:09:59;5.10;99.90
16102;DHT22;56411;52.964;10.540;2023-03-04T15:12:29;5.10;99.90
16102;DHT22;56411;52.964;10.540;2023-03-04T15:14:58;5.10;99.90
16102;DHT22;56411;52.964;10.540;2023-03-04T15:17:31;5.10;99.90
16102;DHT22;56411;52.964;10.540;2023-03-04T15:20:23;5.10;99.90
16102;DHT22;56411;52.964;10.540;2023-03-04T15:22:59;5.00;99.90
16102;DHT22;56411;52.964;10.540;2023-03-04T15:25:27;5.00;99.90
16102;DHT22;56411;52.964;10.540;2023-03-04T15:27:55;5.00;99.90
16102;DHT22;56411;52.964;10.540;2023-03-04T15:30:24;5.00;99.90
16102;DHT22;56411;52.964;10.540;2023-03-04T15:32:54;5.00;99.90
16102;DHT22;56411;52.964;10.540;2023-03-04T15:35:22;4.90;99.90
16102;DHT22;56411;52.964;10.540;2023-03-04T15:37:51;4.90;99.90
16102;DHT22;56411;52.964;10.540;2023-03-04T15:40:25;4.80;99.90
16102;DHT22;56411;52.964;10.540;2023-03-04T15:42:54;4.80;99.90
16102;DHT22;56411;52.964;10.540;2023-03-04T15:45:24;4.80;99.90
16102;DHT22;56411;52.964;10.540;2023-03-04T15:47:53;4.80;99.90
16102;DHT22;56411;52.964;10.540;2023-03-04T15:50:20;4.80;99.90
16102;DHT22;56411;52.964;10.540;2023-03-04T15:52:48;4.70;99.90
16102;DHT22;56411;52.964;10.540;2023-03-04T15:55:17;4.70;99.90
16102;DHT22;56411;52.964;10.540;2023-03-04T15:57:46;4.70;99.90
16102;DHT22;56411;52.964;10.540;2023-03-04T16:00:14;4.70;99.90
16102;DHT22;56411;52.964;10.540;2023-03-04T16:02:41;4.60;99.90
16102;DHT22;56411;52.964;10.540;2023-03-04T16:05:10;4.60;99.90
16102;DHT22;56411;52.964;10.540;2023-03-04T16:07:38;4.60;99.90
16102;DHT22;56411;52.964;10.540;2023-03-04T16:10:11;4.60;99.90
16102;DHT22;56411;52.964;10.540;2023-03-04T16:12:39;4.60;99.90